createdAt,value
2022-08-05T00:06:28.949Z,25.13
2022-08-05T00:18:24.480Z,24.82
2022-08-05T00:25:17.231Z,24.37
2022-08-05T00:32:22.902Z,24.32
2022-08-05T00:49:21.288Z,24.07
2022-08-05T01:03:55.212Z,24.03
2022-08-05T01:07:05.319Z,23.96
2022-08-05T01:10:18.706Z,23.80
2022-08-05T01:13:22.216Z,23.78
2022-08-05T01:16:59.642Z,23.75
2022-08-05T01:20:13.296Z,23.70
2022-08-05T01:23:40.236Z,23.55
2022-08-05T01:33:53.805Z,23.20
2022-08-05T01:37:24.639Z,22.99
2022-08-05T01:40:22.225Z,22.91
2022-08-05T01:47:17.853Z,22.87
2022-08-05T01:54:10.263Z,22.91
2022-08-05T01:58:09.566Z,23.11
2022-08-05T02:12:03.688Z,23.16
2022-08-05T02:15:56.779Z,23.24
2022-08-05T02:19:49.551Z,23.18
2022-08-05T02:26:08.568Z,23.11
2022-08-05T02:32:24.210Z,22.89
2022-08-05T02:39:08.965Z,22.91
2022-08-05T02:42:54.310Z,22.85
2022-08-05T02:49:37.143Z,22.66
2022-08-05T02:53:16.135Z,22.60
2022-08-05T03:44:08.335Z,22.10
2022-08-05T03:55:53.868Z,21.96
2022-08-05T03:58:56.454Z,22.02
2022-08-05T04:05:33.590Z,22.00
2022-08-05T04:08:03.302Z,21.90
2022-08-05T04:10:37.978Z,21.85
2022-08-05T04:13:07.469Z,21.99
2022-08-05T04:15:36.514Z,21.96
2022-08-05T04:18:06.635Z,21.91
2022-08-05T04:20:36.431Z,21.95
2022-08-05T04:23:04.162Z,21.90
2022-08-05T04:25:57.689Z,21.80
2022-08-05T04:28:19.891Z,21.92
2022-08-05T04:30:58.856Z,21.77
2022-08-05T04:34:19.125Z,21.95
2022-08-05T04:36:45.510Z,21.84
2022-08-05T04:39:05.878Z,21.80
2022-08-05T04:41:37.722Z,21.81
2022-08-05T04:44:09.242Z,21.82
2022-08-05T04:46:37.598Z,21.79
2022-08-05T04:49:05.982Z,21.78
2022-08-05T04:51:41.585Z,21.89
2022-08-05T04:54:10.471Z,21.93
2022-08-05T04:56:40.132Z,21.76
2022-08-05T04:59:21.789Z,21.78
2022-08-05T05:02:34.918Z,21.85
2022-08-05T05:04:44.098Z,21.99
2022-08-05T05:07:17.273Z,22.06
2022-08-05T05:09:45.079Z,22.10
2022-08-05T05:12:13.126Z,22.08
2022-08-05T05:14:49.211Z,22.10
2022-08-05T05:17:23.259Z,22.06
2022-08-05T05:19:54.399Z,22.20
2022-08-05T05:22:26.412Z,22.39
2022-08-05T05:24:56.702Z,22.25
2022-08-05T05:27:44.818Z,22.14
2022-08-05T05:30:29.678Z,22.10
2022-08-05T05:33:00.956Z,22.09
2022-08-05T05:35:37.986Z,22.09
2022-08-05T05:38:08.914Z,22.10
2022-08-05T05:40:37.591Z,22.14
2022-08-05T05:43:05.239Z,22.05
2022-08-05T05:45:36.439Z,22.09
2022-08-05T05:48:16.280Z,22.10
2022-08-05T05:50:44.632Z,22.04
2022-08-05T05:53:21.027Z,22.05
2022-08-05T05:55:51.872Z,22.09
2022-08-05T05:58:31.762Z,22.04
2022-08-05T06:01:02.396Z,22.00
2022-08-05T06:04:01.894Z,22.01
2022-08-05T06:06:30.957Z,21.97
2022-08-05T06:09:00.358Z,22.07
2022-08-05T06:11:28.819Z,22.05
2022-08-05T06:13:57.105Z,22.00
2022-08-05T06:16:28.432Z,21.94
2022-08-05T06:18:59.932Z,22.00
2022-08-05T06:21:35.917Z,22.09
2022-08-05T06:24:11.774Z,22.24
2022-08-05T06:26:39.932Z,22.10
2022-08-05T06:29:46.535Z,22.23
2022-08-05T06:32:21.151Z,22.39
2022-08-05T06:34:56.050Z,22.51
2022-08-05T06:37:56.945Z,22.47
2022-08-05T06:40:20.535Z,22.43
2022-08-05T06:42:52.335Z,22.50
2022-08-05T06:45:45.055Z,22.51
2022-08-05T06:48:44.222Z,22.64
2022-08-05T06:50:57.372Z,22.76
2022-08-05T06:53:27.985Z,22.90
2022-08-05T06:55:58.155Z,22.95
2022-08-05T06:58:35.094Z,23.12
2022-08-05T07:01:06.972Z,23.21
2022-08-05T07:03:35.555Z,23.29
2022-08-05T07:06:06.169Z,23.42
2022-08-05T07:08:42.072Z,23.50
2022-08-05T07:11:15.296Z,23.61
2022-08-05T07:14:00.905Z,23.63
2022-08-05T07:17:58.837Z,23.68
2022-08-05T07:22:27.705Z,23.64
2022-08-05T07:24:57.111Z,23.65
2022-08-05T07:27:27.684Z,23.57
2022-08-05T07:30:25.374Z,23.59
2022-08-05T07:32:56.124Z,23.53
2022-08-05T07:35:56.766Z,23.51
2022-08-05T07:38:26.506Z,23.62
2022-08-05T07:41:16.700Z,23.74
2022-08-05T07:43:50.224Z,23.75
2022-08-05T07:46:24.552Z,23.90
2022-08-05T07:49:02.217Z,23.99
2022-08-05T07:51:40.397Z,24.11
2022-08-05T07:54:10.240Z,24.17
2022-08-05T07:57:00.182Z,24.17
2022-08-05T07:59:38.840Z,24.28
2022-08-05T08:02:15.575Z,24.33
2022-08-05T08:04:48.653Z,24.16
2022-08-05T08:07:22.131Z,24.22
2022-08-05T08:09:52.294Z,24.18
2022-08-05T08:12:35.486Z,24.17
2022-08-05T08:15:09.759Z,24.15
2022-08-05T08:17:50.571Z,24.21
2022-08-05T08:20:59.907Z,24.09
2022-08-05T08:24:00.436Z,24.15
2022-08-05T08:26:00.673Z,24.23
2022-08-05T08:28:35.434Z,24.35
2022-08-05T08:31:07.107Z,24.41
2022-08-05T08:33:37.402Z,24.50
2022-08-05T08:38:55.366Z,24.62
2022-08-05T08:41:25.941Z,24.65
2022-08-05T08:45:16.964Z,24.45
2022-08-05T08:47:03.981Z,24.36
2022-08-05T08:50:14.636Z,24.35
2022-08-05T08:52:40.838Z,24.38
2022-08-05T08:55:19.464Z,24.38
2022-08-05T08:58:02.719Z,24.36
2022-08-05T09:00:31.381Z,24.29
2022-08-05T09:03:01.812Z,24.34
2022-08-05T09:05:38.419Z,24.24
2022-08-05T09:08:19.177Z,24.26
2022-08-05T09:10:54.692Z,24.16
2022-08-05T09:13:23.617Z,24.24
2022-08-05T09:15:51.837Z,24.17
2022-08-05T09:18:21.056Z,24.14
2022-08-05T09:20:51.375Z,24.15
2022-08-05T09:23:21.774Z,24.08
2022-08-05T09:26:02.755Z,23.90
2022-08-05T09:28:34.940Z,23.84
2022-08-05T09:31:22.366Z,23.97
2022-08-05T09:33:56.256Z,23.93
2022-08-05T09:36:27.419Z,23.99
2022-08-05T09:39:02.778Z,23.87
2022-08-05T09:41:32.895Z,24.01
2022-08-05T09:44:06.829Z,24.10
2022-08-05T09:46:35.586Z,24.07
2022-08-05T09:49:18.944Z,24.20
2022-08-05T09:51:49.564Z,24.19
2022-08-05T09:54:21.190Z,24.45
2022-08-05T09:56:57.522Z,24.52
2022-08-05T09:59:29.164Z,24.68
2022-08-05T10:02:03.515Z,24.78
2022-08-05T10:04:40.850Z,24.91
2022-08-05T10:07:19.640Z,25.04
2022-08-05T10:10:14.264Z,24.67
2022-08-05T10:12:49.225Z,24.82
2022-08-05T10:15:20.948Z,24.92
2022-08-05T10:18:08.699Z,24.89
2022-08-05T10:20:40.721Z,24.96
2022-08-05T10:23:34.048Z,25.29
2022-08-05T10:25:57.278Z,25.34
2022-08-05T10:28:29.746Z,25.40
2022-08-05T10:32:48.281Z,25.30
2022-08-05T10:33:52.428Z,25.29
2022-08-05T10:36:26.016Z,25.50
2022-08-05T10:38:59.624Z,25.47
2022-08-05T10:41:45.353Z,25.32
2022-08-05T10:44:19.489Z,25.22
2022-08-05T10:46:51.064Z,25.10
2022-08-05T10:49:27.464Z,24.89
2022-08-05T10:52:05.165Z,25.02
2022-08-05T10:54:56.335Z,24.96
2022-08-05T10:57:32.465Z,24.86
2022-08-05T11:00:18.746Z,24.77
2022-08-05T11:03:25.915Z,24.84
2022-08-05T11:06:15.604Z,25.07
2022-08-05T11:09:45.073Z,25.19
2022-08-05T11:12:54.398Z,25.27
2022-08-05T11:15:59.938Z,25.59
2022-08-05T11:18:25.257Z,25.78
2022-08-05T11:20:53.545Z,25.96
2022-08-05T11:24:02.712Z,26.08
2022-08-05T11:26:29.110Z,25.93
2022-08-05T11:29:11.358Z,26.23
2022-08-05T11:31:53.965Z,26.37
2022-08-05T11:34:51.738Z,26.58
2022-08-05T11:38:29.001Z,26.45
2022-08-05T11:41:03.627Z,26.62
2022-08-05T11:44:06.729Z,26.89
2022-08-05T11:47:09.422Z,26.87
2022-08-05T11:49:26.508Z,26.90
2022-08-05T11:51:54.714Z,26.81
2022-08-05T11:54:33.131Z,26.81
2022-08-05T11:57:08.752Z,26.93
2022-08-05T11:59:50.849Z,27.10
2022-08-05T12:02:31.264Z,27.01
2022-08-05T12:05:00.963Z,27.36
2022-08-05T12:08:09.012Z,27.62
2022-08-05T12:10:24.931Z,27.27
2022-08-05T12:13:16.670Z,27.48
2022-08-05T12:15:49.879Z,27.18
2022-08-05T12:18:20.755Z,27.33
2022-08-05T12:20:52.148Z,27.25
2022-08-05T12:23:19.783Z,27.26
2022-08-05T12:25:51.394Z,27.19
2022-08-05T12:28:34.536Z,27.25
2022-08-05T12:31:04.759Z,27.10
2022-08-05T12:33:36.383Z,27.07
2022-08-05T12:36:07.142Z,26.94
2022-08-05T12:38:37.814Z,26.84
2022-08-05T12:41:12.977Z,26.92
2022-08-05T12:43:55.517Z,26.95
2022-08-05T12:46:29.331Z,26.84
2022-08-05T12:49:00.431Z,26.75
2022-08-05T12:52:12.390Z,26.65
2022-08-05T12:54:26.417Z,26.71
2022-08-05T12:56:56.456Z,26.41
2022-08-05T12:59:46.769Z,26.14
2022-08-05T13:02:17.412Z,26.00
2022-08-05T13:04:52.313Z,25.85
2022-08-05T13:07:55.963Z,25.77
2022-08-05T13:10:13.174Z,25.74
2022-08-05T13:12:50.769Z,25.77
2022-08-05T13:15:24.151Z,25.50
2022-08-05T13:17:54.983Z,25.42
2022-08-05T13:20:40.467Z,25.22
2022-08-05T13:23:08.566Z,24.89
2022-08-05T13:25:52.283Z,24.59
2022-08-05T13:28:24.143Z,24.15
2022-08-05T13:30:53.124Z,24.07
2022-08-05T13:34:22.109Z,23.70
2022-08-05T13:36:10.468Z,23.68
2022-08-05T13:38:42.325Z,23.61
2022-08-05T13:41:10.859Z,23.39
2022-08-05T13:43:43.963Z,23.27
2022-08-05T13:46:14.010Z,23.06
2022-08-05T13:48:57.137Z,23.02
2022-08-05T13:51:40.415Z,22.86
2022-08-05T13:54:12.485Z,23.10
2022-08-05T13:56:50.875Z,23.24
2022-08-05T13:59:21.303Z,23.67
2022-08-05T14:01:59.068Z,23.70
2022-08-05T14:04:49.542Z,23.69
2022-08-05T14:07:26.042Z,23.38
2022-08-05T14:10:09.986Z,23.34
2022-08-05T14:12:37.812Z,23.32
2022-08-05T14:16:06.347Z,23.40
2022-08-05T14:17:59.410Z,23.26
2022-08-05T14:20:27.600Z,23.18
2022-08-05T14:22:56.865Z,22.83
2022-08-05T14:25:28.278Z,22.83
2022-08-05T14:27:58.363Z,22.54
2022-08-05T14:30:28.131Z,22.52
2022-08-05T14:32:56.714Z,22.58
2022-08-05T14:35:36.288Z,22.53
2022-08-05T14:38:32.979Z,22.39
2022-08-05T14:41:05.822Z,22.43
2022-08-05T14:44:02.575Z,22.76
2022-08-05T14:46:22.249Z,22.49
2022-08-05T14:48:50.254Z,22.50
2022-08-05T14:51:18.048Z,22.35
2022-08-05T14:54:26.164Z,22.31
2022-08-05T14:56:37.975Z,22.27
2022-08-05T14:59:12.712Z,22.11
2022-08-05T15:01:49.141Z,22.08
2022-08-05T15:04:17.613Z,22.11
2022-08-05T15:06:49.258Z,22.10
2022-08-05T15:09:50.538Z,22.10
2022-08-05T15:12:08.769Z,22.07
2022-08-05T15:14:48.100Z,22.14
2022-08-05T15:17:46.984Z,22.13
2022-08-05T15:20:06.267Z,22.28
2022-08-05T15:22:37.537Z,22.26
2022-08-05T15:25:13.844Z,22.23
2022-08-05T15:27:42.953Z,22.23
2022-08-05T15:30:19.918Z,22.09
2022-08-05T15:32:47.669Z,22.04
2022-08-05T15:35:15.537Z,22.00
2022-08-05T15:38:34.522Z,21.92
2022-08-05T15:41:01.805Z,22.06
2022-08-05T15:43:21.263Z,22.19
2022-08-05T15:46:00.303Z,21.97
2022-08-05T15:48:29.854Z,21.93
2022-08-05T15:50:58.237Z,21.91
2022-08-05T15:53:38.582Z,21.90
2022-08-05T15:56:20.579Z,22.13
2022-08-05T15:58:48.971Z,22.24
2022-08-05T16:01:18.140Z,22.14
2022-08-05T16:03:48.512Z,22.29
2022-08-05T16:06:20.254Z,22.33
2022-08-05T16:08:51.169Z,22.26
2022-08-05T16:11:42.441Z,22.20
2022-08-05T16:14:10.511Z,22.31
2022-08-05T16:16:46.010Z,22.19
2022-08-05T16:19:25.878Z,22.26
2022-08-05T16:22:03.198Z,22.30
2022-08-05T16:24:39.800Z,22.37
2022-08-05T16:27:10.232Z,22.40
2022-08-05T16:29:47.505Z,22.32
2022-08-05T16:32:28.522Z,22.10
2022-08-05T16:34:57.619Z,22.06
2022-08-05T16:38:03.361Z,22.17
2022-08-05T16:40:26.623Z,22.19
2022-08-05T16:42:58.627Z,22.08
2022-08-05T16:46:06.859Z,22.12
2022-08-05T16:48:25.200Z,22.20
2022-08-05T16:50:54.252Z,22.17
2022-08-05T16:53:32.269Z,22.00
2022-08-05T16:56:10.631Z,21.98
2022-08-05T16:58:41.758Z,22.02
2022-08-05T17:01:10.633Z,21.81
2022-08-05T17:03:38.963Z,21.82
2022-08-05T17:06:07.266Z,21.73
2022-08-05T17:08:52.193Z,21.82
2022-08-05T17:11:23.430Z,21.76
2022-08-05T17:14:00.579Z,21.75
2022-08-05T17:16:36.082Z,21.76
2022-08-05T17:19:07.870Z,21.73
2022-08-05T17:21:39.808Z,21.82
2022-08-05T17:24:30.196Z,21.78
2022-08-05T17:26:57.254Z,22.03
2022-08-05T17:29:40.064Z,21.81
2022-08-05T17:32:11.906Z,21.98
2022-08-05T17:34:47.503Z,22.05
2022-08-05T17:37:40.720Z,21.96
2022-08-05T17:40:05.888Z,22.08
2022-08-05T17:42:43.097Z,22.10
2022-08-05T17:45:21.791Z,22.07
2022-08-05T17:47:54.557Z,22.15
2022-08-05T17:50:28.671Z,22.11
2022-08-05T17:52:59.898Z,22.05
2022-08-05T17:55:37.617Z,21.87
2022-08-05T17:58:07.193Z,22.00
2022-08-05T18:00:40.867Z,21.79
2022-08-05T18:03:12.887Z,21.93
2022-08-05T18:05:56.019Z,21.92
2022-08-05T18:08:29.595Z,21.81
2022-08-05T18:10:57.978Z,21.85
2022-08-05T18:13:25.818Z,21.80
2022-08-05T18:15:54.942Z,21.81
2022-08-05T18:18:22.608Z,21.65
2022-08-05T18:20:55.115Z,21.60
2022-08-05T18:23:23.005Z,21.50
2022-08-05T18:25:59.590Z,21.43
2022-08-05T18:28:28.218Z,21.38
2022-08-05T18:30:57.601Z,21.42
2022-08-05T18:33:25.227Z,21.23
2022-08-05T18:36:03.629Z,21.39
2022-08-05T18:38:35.848Z,21.39
2022-08-05T18:41:57.092Z,21.31
2022-08-05T18:43:52.047Z,21.27
2022-08-05T18:46:21.071Z,21.09
2022-08-05T18:48:52.239Z,21.02
2022-08-05T18:52:05.107Z,20.91
2022-08-05T18:54:25.427Z,20.94
2022-08-05T18:56:53.063Z,20.88
2022-08-05T18:59:43.894Z,20.87
2022-08-05T19:02:11.152Z,20.74
2022-08-05T19:05:03.250Z,20.67
2022-08-05T19:07:46.670Z,20.57
2022-08-05T19:10:14.779Z,20.54
2022-08-05T19:12:43.282Z,20.49
2022-08-05T19:15:25.117Z,20.39
2022-08-05T19:18:09.830Z,20.47
2022-08-05T19:20:41.078Z,20.43
2022-08-05T19:23:22.540Z,20.24
2022-08-05T19:26:01.848Z,20.13
2022-08-05T19:28:30.638Z,20.18
2022-08-05T19:30:58.316Z,20.13
2022-08-05T19:33:36.005Z,20.05
2022-08-05T19:36:06.313Z,19.94
2022-08-05T19:38:35.963Z,19.98
2022-08-05T19:41:07.296Z,19.91
2022-08-05T19:44:05.750Z,19.85
2022-08-05T19:46:30.593Z,19.87
2022-08-05T19:49:01.232Z,19.90
2022-08-05T19:52:06.121Z,19.73
2022-08-05T19:54:25.518Z,19.71
2022-08-05T19:56:58.633Z,19.79
2022-08-05T19:59:55.369Z,19.75
2022-08-05T20:02:15.113Z,19.61
2022-08-05T20:04:48.446Z,19.64
2022-08-05T20:07:47.386Z,19.65
2022-08-05T20:10:13.944Z,19.53
2022-08-05T20:12:47.577Z,19.44
2022-08-05T20:15:47.786Z,19.44
2022-08-05T20:18:10.792Z,19.43
2022-08-05T20:20:55.769Z,19.30
2022-08-05T20:23:40.737Z,19.27
2022-08-05T20:26:16.603Z,19.16
2022-08-05T20:28:46.065Z,19.13
2022-08-05T20:31:16.358Z,19.12
2022-08-05T20:33:45.075Z,18.98
2022-08-05T20:36:16.263Z,18.87
2022-08-05T20:38:54.273Z,18.89
2022-08-05T20:41:27.317Z,18.99
2022-08-05T20:44:17.062Z,18.98
2022-08-05T20:46:47.360Z,19.10
2022-08-05T20:49:15.227Z,18.86
2022-08-05T20:51:53.890Z,18.80
2022-08-05T20:54:22.077Z,18.83
2022-08-05T20:56:50.048Z,18.88
2022-08-05T20:59:26.754Z,18.73
2022-08-05T21:01:57.841Z,18.79
2022-08-05T21:04:27.113Z,18.68
2022-08-05T21:06:56.476Z,18.55
2022-08-05T21:09:24.387Z,18.63
2022-08-05T21:12:09.426Z,18.61
2022-08-05T21:14:39.620Z,18.56
2022-08-05T21:17:07.364Z,18.52
2022-08-05T21:19:46.726Z,18.44
2022-08-05T21:22:18.360Z,18.54
2022-08-05T21:24:52.410Z,18.40
2022-08-05T21:27:25.498Z,18.44
2022-08-05T21:29:55.904Z,18.26
2022-08-05T21:32:26.681Z,18.30
2022-08-05T21:35:08.289Z,18.35
2022-08-05T21:37:47.195Z,18.34
2022-08-05T21:40:16.462Z,18.29
2022-08-05T21:42:45.649Z,18.23
2022-08-05T21:45:24.460Z,18.19
2022-08-05T21:47:56.478Z,18.18
2022-08-05T21:50:25.392Z,18.10
2022-08-05T21:52:59.153Z,18.05
2022-08-05T21:56:01.799Z,18.10
2022-08-05T21:58:20.412Z,18.11
2022-08-05T22:00:56.649Z,17.95
2022-08-05T22:03:49.139Z,17.89
2022-08-05T22:06:12.630Z,17.89
2022-08-05T22:08:42.802Z,17.98
2022-08-05T22:11:11.855Z,17.85
2022-08-05T22:14:33.837Z,17.96
2022-08-05T22:16:42.032Z,17.84
2022-08-05T22:20:03.235Z,17.84
2022-08-05T22:22:06.863Z,17.73
2022-08-05T22:24:53.566Z,17.79
2022-08-05T22:28:09.215Z,17.72
2022-08-05T22:30:35.162Z,17.75
2022-08-05T22:33:03.807Z,17.63
2022-08-05T22:35:49.249Z,17.72
2022-08-05T22:38:19.654Z,17.63
2022-08-05T22:40:49.590Z,17.64
2022-08-05T22:43:37.244Z,17.69
2022-08-05T22:46:13.052Z,17.48
2022-08-05T22:48:48.663Z,17.58
2022-08-05T22:51:22.802Z,17.54
2022-08-05T22:53:51.843Z,17.59
2022-08-05T22:56:30.204Z,17.53
2022-08-05T22:58:59.882Z,17.57
2022-08-05T23:01:50.866Z,17.45
2022-08-05T23:04:18.482Z,17.42
2022-08-05T23:06:47.881Z,17.42
2022-08-05T23:09:27.697Z,17.38
2022-08-05T23:12:05.539Z,17.47
2022-08-05T23:14:33.822Z,17.40
2022-08-05T23:17:24.523Z,17.48
2022-08-05T23:20:02.486Z,17.27
2022-08-05T23:22:30.807Z,17.31
2022-08-05T23:24:58.803Z,17.28
2022-08-05T23:27:42.461Z,17.37
2022-08-05T23:30:27.056Z,17.27
2022-08-05T23:32:57.453Z,17.20
2022-08-05T23:35:25.446Z,17.22
2022-08-05T23:37:56.486Z,17.25
2022-08-05T23:40:27.086Z,17.27
2022-08-05T23:42:56.427Z,17.23
2022-08-05T23:45:24.129Z,17.21
2022-08-05T23:47:53.825Z,17.20
2022-08-05T23:50:27.573Z,17.15
2022-08-05T23:52:58.723Z,17.24
2022-08-05T23:55:31.132Z,17.21
2022-08-05T23:58:00.476Z,17.07
